sensor_id;sensor_type;location;lat;lon;timestamp;P1;durP1;ratioP1;P2;durP2;ratioP2
66175;SDS011;52977;44.816;20.538;2022-11-15T00:00:35;26.23;;;11.18;;
66175;SDS011;52977;44.816;20.538;2022-11-15T00:03:20;24.35;;;9.75;;
66175;SDS011;52977;44.816;20.538;2022-11-15T00:06:06;24.48;;;10.68;;
66175;SDS011;52977;44.816;20.538;2022-11-15T00:08:50;24.65;;;10.07;;
66175;SDS011;52977;44.816;20.538;2022-11-15T00:11:35;28.10;;;10.27;;
66175;SDS011;52977;44.816;20.538;2022-11-15T00:14:19;25.25;;;10.20;;
66175;SDS011;52977;44.816;20.538;2022-11-15T00:17:04;23.90;;;9.48;;
66175;SDS011;52977;44.816;20.538;2022-11-15T00:19:48;27.70;;;10.65;;
66175;SDS011;52977;44.816;20.538;2022-11-15T00:22:33;23.27;;;9.63;;
66175;SDS011;52977;44.816;20.538;2022-11-15T00:25:18;24.55;;;9.68;;
66175;SDS011;52977;44.816;20.538;2022-11-15T00:28:03;16.83;;;8.30;;
66175;SDS011;52977;44.816;20.538;2022-11-15T00:30:48;22.17;;;8.75;;
66175;SDS011;52977;44.816;20.538;2022-11-15T00:33:33;21.17;;;9.02;;
66175;SDS011;52977;44.816;20.538;2022-11-15T00:36:18;21.85;;;8.75;;
66175;SDS011;52977;44.816;20.538;2022-11-15T00:39:05;22.08;;;9.10;;
66175;SDS011;52977;44.816;20.538;2022-11-15T00:41:50;19.77;;;8.25;;
66175;SDS011;52977;44.816;20.538;2022-11-15T00:44:35;17.98;;;7.93;;
66175;SDS011;52977;44.816;20.538;2022-11-15T00:47:19;25.65;;;8.73;;
66175;SDS011;52977;44.816;20.538;2022-11-15T00:50:04;20.17;;;8.43;;
66175;SDS011;52977;44.816;20.538;2022-11-15T00:52:49;17.80;;;7.57;;
66175;SDS011;52977;44.816;20.538;2022-11-15T00:55:33;21.48;;;7.85;;
66175;SDS011;52977;44.816;20.538;2022-11-15T00:58:18;18.83;;;8.07;;
66175;SDS011;52977;44.816;20.538;2022-11-15T01:01:10;20.42;;;7.47;;
66175;SDS011;52977;44.816;20.538;2022-11-15T01:03:56;22.77;;;8.05;;
66175;SDS011;52977;44.816;20.538;2022-11-15T01:06:41;16.98;;;7.97;;
66175;SDS011;52977;44.816;20.538;2022-11-15T01:09:27;22.30;;;8.60;;
66175;SDS011;52977;44.816;20.538;2022-11-15T01:12:11;19.65;;;8.13;;
66175;SDS011;52977;44.816;20.538;2022-11-15T01:14:57;21.33;;;7.88;;
66175;SDS011;52977;44.816;20.538;2022-11-15T01:17:42;17.17;;;7.47;;
66175;SDS011;52977;44.816;20.538;2022-11-15T01:20:26;19.05;;;8.95;;
66175;SDS011;52977;44.816;20.538;2022-11-15T01:23:11;17.08;;;7.80;;
66175;SDS011;52977;44.816;20.538;2022-11-15T01:26:00;21.50;;;7.90;;
66175;SDS011;52977;44.816;20.538;2022-11-15T01:28:46;20.08;;;8.00;;
66175;SDS011;52977;44.816;20.538;2022-11-15T01:31:30;20.60;;;8.25;;
66175;SDS011;52977;44.816;20.538;2022-11-15T01:34:15;19.30;;;7.43;;
66175;SDS011;52977;44.816;20.538;2022-11-15T01:37:00;17.85;;;7.30;;
66175;SDS011;52977;44.816;20.538;2022-11-15T01:39:45;18.27;;;7.53;;
66175;SDS011;52977;44.816;20.538;2022-11-15T01:42:30;20.00;;;8.32;;
66175;SDS011;52977;44.816;20.538;2022-11-15T01:45:15;16.33;;;7.43;;
66175;SDS011;52977;44.816;20.538;2022-11-15T01:48:01;18.17;;;7.65;;
66175;SDS011;52977;44.816;20.538;2022-11-15T01:50:46;15.00;;;7.28;;
66175;SDS011;52977;44.816;20.538;2022-11-15T01:53:31;16.95;;;7.13;;
66175;SDS011;52977;44.816;20.538;2022-11-15T01:56:19;16.80;;;7.30;;
66175;SDS011;52977;44.816;20.538;2022-11-15T01:59:09;18.58;;;7.90;;
66175;SDS011;52977;44.816;20.538;2022-11-15T02:01:55;19.73;;;7.65;;
66175;SDS011;52977;44.816;20.538;2022-11-15T02:04:41;19.75;;;7.18;;
66175;SDS011;52977;44.816;20.538;2022-11-15T02:07:27;17.13;;;6.85;;
66175;SDS011;52977;44.816;20.538;2022-11-15T02:10:17;12.90;;;6.10;;
66175;SDS011;52977;44.816;20.538;2022-11-15T02:13:04;16.60;;;6.63;;
66175;SDS011;52977;44.816;20.538;2022-11-15T02:15:56;14.93;;;6.90;;
66175;SDS011;52977;44.816;20.538;2022-11-15T02:18:46;16.95;;;6.95;;
66175;SDS011;52977;44.816;20.538;2022-11-15T02:21:37;16.52;;;6.63;;
66175;SDS011;52977;44.816;20.538;2022-11-15T02:31:01;15.43;;;6.25;;
66175;SDS011;52977;44.816;20.538;2022-11-15T02:37:06;14.30;;;6.10;;
66175;SDS011;52977;44.816;20.538;2022-11-15T02:43:25;13.15;;;6.00;;
66175;SDS011;52977;44.816;20.538;2022-11-15T02:46:35;13.88;;;6.20;;
66175;SDS011;52977;44.816;20.538;2022-11-15T02:52:38;12.27;;;6.00;;
66175;SDS011;52977;44.816;20.538;2022-11-15T02:55:30;12.93;;;5.70;;
66175;SDS011;52977;44.816;20.538;2022-11-15T03:07:39;13.40;;;5.80;;
66175;SDS011;52977;44.816;20.538;2022-11-15T03:10:39;14.23;;;6.78;;
66175;SDS011;52977;44.816;20.538;2022-11-15T03:13:36;15.00;;;6.45;;
66175;SDS011;52977;44.816;20.538;2022-11-15T03:19:55;16.08;;;6.38;;
66175;SDS011;52977;44.816;20.538;2022-11-15T03:22:43;15.50;;;6.53;;
66175;SDS011;52977;44.816;20.538;2022-11-15T03:25:31;17.05;;;6.65;;
66175;SDS011;52977;44.816;20.538;2022-11-15T03:28:21;13.35;;;6.07;;
66175;SDS011;52977;44.816;20.538;2022-11-15T03:31:10;14.65;;;5.70;;
66175;SDS011;52977;44.816;20.538;2022-11-15T03:37:20;16.58;;;5.82;;
66175;SDS011;52977;44.816;20.538;2022-11-15T03:40:09;13.48;;;5.43;;
66175;SDS011;52977;44.816;20.538;2022-11-15T03:42:58;11.75;;;5.45;;
66175;SDS011;52977;44.816;20.538;2022-11-15T03:48:36;13.73;;;5.90;;
66175;SDS011;52977;44.816;20.538;2022-11-15T03:51:33;15.07;;;5.85;;
66175;SDS011;52977;44.816;20.538;2022-11-15T03:54:19;15.90;;;6.43;;
66175;SDS011;52977;44.816;20.538;2022-11-15T03:57:04;19.17;;;7.05;;
66175;SDS011;52977;44.816;20.538;2022-11-15T03:59:49;12.40;;;6.07;;
66175;SDS011;52977;44.816;20.538;2022-11-15T04:02:33;17.13;;;6.95;;
66175;SDS011;52977;44.816;20.538;2022-11-15T04:05:18;16.52;;;6.35;;
66175;SDS011;52977;44.816;20.538;2022-11-15T04:08:03;16.15;;;7.10;;
66175;SDS011;52977;44.816;20.538;2022-11-15T04:10:48;14.68;;;6.60;;
66175;SDS011;52977;44.816;20.538;2022-11-15T04:13:33;14.27;;;6.43;;
66175;SDS011;52977;44.816;20.538;2022-11-15T04:16:18;16.52;;;6.85;;
66175;SDS011;52977;44.816;20.538;2022-11-15T04:19:03;18.95;;;7.53;;
66175;SDS011;52977;44.816;20.538;2022-11-15T04:22:07;20.30;;;6.72;;
66175;SDS011;52977;44.816;20.538;2022-11-15T04:25:10;19.17;;;6.28;;
66175;SDS011;52977;44.816;20.538;2022-11-15T04:27:55;16.35;;;6.65;;
66175;SDS011;52977;44.816;20.538;2022-11-15T04:30:39;18.38;;;7.35;;
66175;SDS011;52977;44.816;20.538;2022-11-15T04:33:24;15.55;;;6.78;;
66175;SDS011;52977;44.816;20.538;2022-11-15T04:36:09;14.82;;;6.53;;
66175;SDS011;52977;44.816;20.538;2022-11-15T04:39:12;13.57;;;6.45;;
66175;SDS011;52977;44.816;20.538;2022-11-15T04:41:57;14.80;;;6.45;;
66175;SDS011;52977;44.816;20.538;2022-11-15T04:44:41;20.83;;;7.85;;
66175;SDS011;52977;44.816;20.538;2022-11-15T04:47:27;21.10;;;7.55;;
66175;SDS011;52977;44.816;20.538;2022-11-15T04:50:12;21.65;;;7.03;;
66175;SDS011;52977;44.816;20.538;2022-11-15T04:52:58;20.13;;;7.15;;
66175;SDS011;52977;44.816;20.538;2022-11-15T04:55:45;21.17;;;8.30;;
66175;SDS011;52977;44.816;20.538;2022-11-15T04:58:31;16.33;;;7.20;;
66175;SDS011;52977;44.816;20.538;2022-11-15T05:01:16;16.30;;;6.57;;
66175;SDS011;52977;44.816;20.538;2022-11-15T05:04:01;18.13;;;7.05;;
66175;SDS011;52977;44.816;20.538;2022-11-15T05:07:04;14.75;;;6.50;;
66175;SDS011;52977;44.816;20.538;2022-11-15T05:09:49;16.23;;;6.50;;
66175;SDS011;52977;44.816;20.538;2022-11-15T05:12:33;16.00;;;6.85;;
66175;SDS011;52977;44.816;20.538;2022-11-15T05:15:18;15.52;;;6.18;;
66175;SDS011;52977;44.816;20.538;2022-11-15T05:18:03;15.88;;;6.97;;
66175;SDS011;52977;44.816;20.538;2022-11-15T05:20:48;13.82;;;6.15;;
66175;SDS011;52977;44.816;20.538;2022-11-15T05:23:33;12.20;;;6.13;;
66175;SDS011;52977;44.816;20.538;2022-11-15T05:26:18;12.18;;;5.97;;
66175;SDS011;52977;44.816;20.538;2022-11-15T05:29:03;16.98;;;6.65;;
66175;SDS011;52977;44.816;20.538;2022-11-15T05:31:47;14.50;;;6.55;;
66175;SDS011;52977;44.816;20.538;2022-11-15T05:34:32;16.77;;;7.30;;
66175;SDS011;52977;44.816;20.538;2022-11-15T05:37:17;15.93;;;6.20;;
66175;SDS011;52977;44.816;20.538;2022-11-15T05:40:02;15.07;;;6.90;;
66175;SDS011;52977;44.816;20.538;2022-11-15T05:42:47;15.52;;;7.03;;
66175;SDS011;52977;44.816;20.538;2022-11-15T05:45:32;17.15;;;6.85;;
66175;SDS011;52977;44.816;20.538;2022-11-15T05:48:18;15.85;;;6.70;;
66175;SDS011;52977;44.816;20.538;2022-11-15T05:51:04;15.32;;;6.88;;
66175;SDS011;52977;44.816;20.538;2022-11-15T05:53:51;17.58;;;7.13;;
66175;SDS011;52977;44.816;20.538;2022-11-15T05:56:37;14.85;;;6.63;;
66175;SDS011;52977;44.816;20.538;2022-11-15T05:59:22;19.05;;;7.30;;
66175;SDS011;52977;44.816;20.538;2022-11-15T06:02:07;13.95;;;6.40;;
66175;SDS011;52977;44.816;20.538;2022-11-15T06:04:51;15.77;;;7.03;;
66175;SDS011;52977;44.816;20.538;2022-11-15T06:07:36;15.18;;;6.45;;
66175;SDS011;52977;44.816;20.538;2022-11-15T06:10:21;14.65;;;6.50;;
66175;SDS011;52977;44.816;20.538;2022-11-15T06:13:06;16.10;;;7.47;;
66175;SDS011;52977;44.816;20.538;2022-11-15T06:15:50;15.40;;;6.50;;
66175;SDS011;52977;44.816;20.538;2022-11-15T06:18:35;14.73;;;6.30;;
66175;SDS011;52977;44.816;20.538;2022-11-15T06:21:20;14.73;;;6.30;;
66175;SDS011;52977;44.816;20.538;2022-11-15T06:24:06;13.70;;;5.75;;
66175;SDS011;52977;44.816;20.538;2022-11-15T06:26:51;15.30;;;6.05;;
66175;SDS011;52977;44.816;20.538;2022-11-15T06:29:36;14.88;;;6.32;;
66175;SDS011;52977;44.816;20.538;2022-11-15T06:32:20;13.63;;;6.03;;
66175;SDS011;52977;44.816;20.538;2022-11-15T06:35:05;16.17;;;6.82;;
66175;SDS011;52977;44.816;20.538;2022-11-15T06:37:50;15.60;;;7.13;;
66175;SDS011;52977;44.816;20.538;2022-11-15T06:40:36;13.07;;;6.68;;
66175;SDS011;52977;44.816;20.538;2022-11-15T06:43:22;11.27;;;5.65;;
66175;SDS011;52977;44.816;20.538;2022-11-15T06:46:07;14.40;;;5.70;;
66175;SDS011;52977;44.816;20.538;2022-11-15T06:48:52;14.15;;;6.18;;
66175;SDS011;52977;44.816;20.538;2022-11-15T06:51:37;11.50;;;5.45;;
66175;SDS011;52977;44.816;20.538;2022-11-15T06:54:22;13.23;;;5.90;;
66175;SDS011;52977;44.816;20.538;2022-11-15T06:57:07;11.20;;;5.35;;
66175;SDS011;52977;44.816;20.538;2022-11-15T06:59:52;12.73;;;5.30;;
66175;SDS011;52977;44.816;20.538;2022-11-15T07:02:37;14.15;;;4.70;;
66175;SDS011;52977;44.816;20.538;2022-11-15T07:05:22;11.23;;;5.32;;
66175;SDS011;52977;44.816;20.538;2022-11-15T07:08:06;12.85;;;5.75;;
66175;SDS011;52977;44.816;20.538;2022-11-15T07:10:51;14.75;;;5.95;;
66175;SDS011;52977;44.816;20.538;2022-11-15T07:13:36;13.70;;;5.90;;
66175;SDS011;52977;44.816;20.538;2022-11-15T07:16:21;13.95;;;5.18;;
66175;SDS011;52977;44.816;20.538;2022-11-15T07:19:06;11.60;;;5.63;;
66175;SDS011;52977;44.816;20.538;2022-11-15T07:21:53;20.73;;;7.35;;
66175;SDS011;52977;44.816;20.538;2022-11-15T07:24:38;16.63;;;7.47;;
66175;SDS011;52977;44.816;20.538;2022-11-15T07:27:22;17.83;;;7.95;;
66175;SDS011;52977;44.816;20.538;2022-11-15T07:30:07;17.25;;;7.32;;
66175;SDS011;52977;44.816;20.538;2022-11-15T07:32:53;15.43;;;6.85;;
66175;SDS011;52977;44.816;20.538;2022-11-15T07:35:42;16.00;;;7.15;;
66175;SDS011;52977;44.816;20.538;2022-11-15T07:38:27;15.80;;;7.15;;
66175;SDS011;52977;44.816;20.538;2022-11-15T07:41:13;16.00;;;7.32;;
66175;SDS011;52977;44.816;20.538;2022-11-15T07:43:58;16.02;;;6.57;;
66175;SDS011;52977;44.816;20.538;2022-11-15T07:46:43;19.90;;;7.72;;
66175;SDS011;52977;44.816;20.538;2022-11-15T07:49:27;20.17;;;8.45;;
66175;SDS011;52977;44.816;20.538;2022-11-15T07:52:12;24.17;;;8.05;;
66175;SDS011;52977;44.816;20.538;2022-11-15T07:54:57;15.48;;;7.25;;
66175;SDS011;52977;44.816;20.538;2022-11-15T07:57:42;13.75;;;6.40;;
66175;SDS011;52977;44.816;20.538;2022-11-15T08:00:27;15.07;;;6.38;;
66175;SDS011;52977;44.816;20.538;2022-11-15T08:03:13;15.77;;;7.15;;
66175;SDS011;52977;44.816;20.538;2022-11-15T08:06:00;16.92;;;8.15;;
66175;SDS011;52977;44.816;20.538;2022-11-15T08:08:46;17.70;;;8.55;;
66175;SDS011;52977;44.816;20.538;2022-11-15T08:11:31;18.52;;;8.95;;
66175;SDS011;52977;44.816;20.538;2022-11-15T08:14:16;21.35;;;8.82;;
66175;SDS011;52977;44.816;20.538;2022-11-15T08:17:01;17.77;;;8.85;;
66175;SDS011;52977;44.816;20.538;2022-11-15T08:19:46;23.75;;;10.32;;
66175;SDS011;52977;44.816;20.538;2022-11-15T08:22:33;20.38;;;8.38;;
66175;SDS011;52977;44.816;20.538;2022-11-15T08:25:18;19.40;;;8.93;;
66175;SDS011;52977;44.816;20.538;2022-11-15T08:28:03;24.52;;;9.68;;
66175;SDS011;52977;44.816;20.538;2022-11-15T08:30:50;25.08;;;12.10;;
66175;SDS011;52977;44.816;20.538;2022-11-15T08:33:35;28.30;;;12.85;;
66175;SDS011;52977;44.816;20.538;2022-11-15T08:36:20;31.50;;;13.50;;
66175;SDS011;52977;44.816;20.538;2022-11-15T08:39:04;24.20;;;12.27;;
66175;SDS011;52977;44.816;20.538;2022-11-15T08:41:49;27.42;;;13.05;;
66175;SDS011;52977;44.816;20.538;2022-11-15T08:44:34;23.63;;;11.38;;
66175;SDS011;52977;44.816;20.538;2022-11-15T08:47:19;25.10;;;12.38;;
66175;SDS011;52977;44.816;20.538;2022-11-15T08:50:04;22.83;;;10.52;;
66175;SDS011;52977;44.816;20.538;2022-11-15T08:52:49;26.10;;;11.32;;
66175;SDS011;52977;44.816;20.538;2022-11-15T08:55:37;23.55;;;10.65;;
66175;SDS011;52977;44.816;20.538;2022-11-15T08:58:22;25.67;;;10.50;;
66175;SDS011;52977;44.816;20.538;2022-11-15T09:01:13;26.80;;;11.10;;
66175;SDS011;52977;44.816;20.538;2022-11-15T09:04:00;19.63;;;9.95;;
66175;SDS011;52977;44.816;20.538;2022-11-15T09:06:45;21.80;;;9.63;;
66175;SDS011;52977;44.816;20.538;2022-11-15T09:09:29;21.75;;;9.55;;
66175;SDS011;52977;44.816;20.538;2022-11-15T09:12:14;24.15;;;9.85;;
66175;SDS011;52977;44.816;20.538;2022-11-15T09:14:59;26.08;;;10.57;;
66175;SDS011;52977;44.816;20.538;2022-11-15T09:17:43;24.65;;;9.80;;
66175;SDS011;52977;44.816;20.538;2022-11-15T09:20:28;17.92;;;9.23;;
66175;SDS011;52977;44.816;20.538;2022-11-15T09:23:13;26.23;;;10.23;;
66175;SDS011;52977;44.816;20.538;2022-11-15T09:26:02;28.33;;;11.10;;
66175;SDS011;52977;44.816;20.538;2022-11-15T09:28:48;24.83;;;10.05;;
66175;SDS011;52977;44.816;20.538;2022-11-15T09:31:33;24.17;;;9.75;;
66175;SDS011;52977;44.816;20.538;2022-11-15T09:34:18;23.10;;;9.90;;
66175;SDS011;52977;44.816;20.538;2022-11-15T09:37:03;21.27;;;8.85;;
66175;SDS011;52977;44.816;20.538;2022-11-15T09:39:47;23.27;;;8.95;;
66175;SDS011;52977;44.816;20.538;2022-11-15T09:51:39;21.55;;;9.20;;
66175;SDS011;52977;44.816;20.538;2022-11-15T09:57:04;17.40;;;8.20;;
66175;SDS011;52977;44.816;20.538;2022-11-15T10:02:33;20.77;;;9.50;;
66175;SDS011;52977;44.816;20.538;2022-11-15T10:05:15;22.85;;;9.68;;
66175;SDS011;52977;44.816;20.538;2022-11-15T10:10:52;22.17;;;11.02;;
66175;SDS011;52977;44.816;20.538;2022-11-15T10:13:23;25.00;;;11.38;;
66175;SDS011;52977;44.816;20.538;2022-11-15T10:15:53;20.17;;;10.07;;
66175;SDS011;52977;44.816;20.538;2022-11-15T10:19:10;21.23;;;10.13;;
66175;SDS011;52977;44.816;20.538;2022-11-15T10:21:40;20.88;;;9.57;;
66175;SDS011;52977;44.816;20.538;2022-11-15T10:24:26;20.63;;;9.68;;
66175;SDS011;52977;44.816;20.538;2022-11-15T10:26:55;22.85;;;10.95;;
66175;SDS011;52977;44.816;20.538;2022-11-15T10:29:23;20.85;;;9.73;;
66175;SDS011;52977;44.816;20.538;2022-11-15T10:31:51;32.72;;;12.98;;
66175;SDS011;52977;44.816;20.538;2022-11-15T10:34:19;31.58;;;12.23;;
66175;SDS011;52977;44.816;20.538;2022-11-15T10:36:57;21.30;;;10.65;;
66175;SDS011;52977;44.816;20.538;2022-11-15T10:39:25;25.50;;;11.27;;
66175;SDS011;52977;44.816;20.538;2022-11-15T10:41:52;26.05;;;11.80;;
66175;SDS011;52977;44.816;20.538;2022-11-15T10:44:26;27.23;;;12.30;;
66175;SDS011;52977;44.816;20.538;2022-11-15T10:51:53;22.10;;;9.80;;
66175;SDS011;52977;44.816;20.538;2022-11-15T10:56:51;22.73;;;10.18;;
66175;SDS011;52977;44.816;20.538;2022-11-15T10:59:24;20.35;;;9.95;;
66175;SDS011;52977;44.816;20.538;2022-11-15T11:01:54;21.92;;;9.65;;
66175;SDS011;52977;44.816;20.538;2022-11-15T11:04:21;20.98;;;9.18;;
66175;SDS011;52977;44.816;20.538;2022-11-15T11:09:22;20.20;;;9.27;;
66175;SDS011;52977;44.816;20.538;2022-11-15T11:11:59;22.05;;;9.98;;
66175;SDS011;52977;44.816;20.538;2022-11-15T11:14:30;24.30;;;10.30;;
66175;SDS011;52977;44.816;20.538;2022-11-15T11:22:34;23.13;;;10.40;;
66175;SDS011;52977;44.816;20.538;2022-11-15T11:30:22;25.20;;;10.63;;
66175;SDS011;52977;44.816;20.538;2022-11-15T11:36:13;21.70;;;10.32;;
66175;SDS011;52977;44.816;20.538;2022-11-15T11:47:31;19.05;;;9.75;;
66175;SDS011;52977;44.816;20.538;2022-11-15T11:50:05;22.83;;;10.30;;
66175;SDS011;52977;44.816;20.538;2022-11-15T11:52:43;22.17;;;10.65;;
66175;SDS011;52977;44.816;20.538;2022-11-15T12:01:04;22.20;;;9.73;;
66175;SDS011;52977;44.816;20.538;2022-11-15T12:03:44;27.10;;;11.07;;
66175;SDS011;52977;44.816;20.538;2022-11-15T12:06:21;26.83;;;10.52;;
66175;SDS011;52977;44.816;20.538;2022-11-15T12:09:14;22.83;;;10.75;;
66175;SDS011;52977;44.816;20.538;2022-11-15T12:12:27;25.65;;;10.73;;
66175;SDS011;52977;44.816;20.538;2022-11-15T12:15:04;20.73;;;9.75;;
66175;SDS011;52977;44.816;20.538;2022-11-15T12:17:36;24.67;;;10.27;;
66175;SDS011;52977;44.816;20.538;2022-11-15T12:20:06;28.98;;;11.23;;
66175;SDS011;52977;44.816;20.538;2022-11-15T12:25:28;29.77;;;12.45;;
66175;SDS011;52977;44.816;20.538;2022-11-15T12:30:42;29.42;;;12.02;;
66175;SDS011;52977;44.816;20.538;2022-11-15T12:33:28;29.27;;;12.98;;
66175;SDS011;52977;44.816;20.538;2022-11-15T12:35:59;24.73;;;12.18;;
66175;SDS011;52977;44.816;20.538;2022-11-15T12:43:54;30.35;;;11.93;;
66175;SDS011;52977;44.816;20.538;2022-11-15T12:49:09;27.42;;;11.45;;
66175;SDS011;52977;44.816;20.538;2022-11-15T13:02:35;29.83;;;10.73;;
66175;SDS011;52977;44.816;20.538;2022-11-15T13:12:54;22.63;;;10.40;;
66175;SDS011;52977;44.816;20.538;2022-11-15T13:15:38;23.70;;;10.75;;
66175;SDS011;52977;44.816;20.538;2022-11-15T13:20:59;26.50;;;11.30;;
66175;SDS011;52977;44.816;20.538;2022-11-15T13:23:26;26.17;;;11.15;;
66175;SDS011;52977;44.816;20.538;2022-11-15T13:31:41;25.83;;;10.93;;
66175;SDS011;52977;44.816;20.538;2022-11-15T13:34:41;23.95;;;10.70;;
66175;SDS011;52977;44.816;20.538;2022-11-15T13:37:02;24.95;;;10.85;;
66175;SDS011;52977;44.816;20.538;2022-11-15T13:43:34;25.33;;;10.48;;
66175;SDS011;52977;44.816;20.538;2022-11-15T13:46:12;22.95;;;11.00;;
66175;SDS011;52977;44.816;20.538;2022-11-15T13:48:43;20.60;;;9.73;;
66175;SDS011;52977;44.816;20.538;2022-11-15T13:53:50;24.27;;;10.90;;
66175;SDS011;52977;44.816;20.538;2022-11-15T13:56:37;26.15;;;11.23;;
66175;SDS011;52977;44.816;20.538;2022-11-15T13:59:18;20.42;;;10.57;;
66175;SDS011;52977;44.816;20.538;2022-11-15T14:01:53;25.17;;;11.18;;
66175;SDS011;52977;44.816;20.538;2022-11-15T14:04:22;25.45;;;10.38;;
66175;SDS011;52977;44.816;20.538;2022-11-15T14:06:55;25.38;;;11.32;;
66175;SDS011;52977;44.816;20.538;2022-11-15T14:09:39;30.05;;;12.27;;
66175;SDS011;52977;44.816;20.538;2022-11-15T14:14:55;23.30;;;10.63;;
66175;SDS011;52977;44.816;20.538;2022-11-15T14:19:57;24.65;;;10.93;;
66175;SDS011;52977;44.816;20.538;2022-11-15T14:22:24;25.85;;;9.98;;
66175;SDS011;52977;44.816;20.538;2022-11-15T14:28:07;24.13;;;10.10;;
66175;SDS011;52977;44.816;20.538;2022-11-15T14:30:48;23.85;;;10.57;;
66175;SDS011;52977;44.816;20.538;2022-11-15T14:33:22;24.95;;;11.80;;
66175;SDS011;52977;44.816;20.538;2022-11-15T14:35:52;28.75;;;11.95;;
66175;SDS011;52977;44.816;20.538;2022-11-15T14:38:18;25.90;;;11.25;;
66175;SDS011;52977;44.816;20.538;2022-11-15T14:40:44;26.95;;;11.93;;
66175;SDS011;52977;44.816;20.538;2022-11-15T14:43:11;26.05;;;11.63;;
66175;SDS011;52977;44.816;20.538;2022-11-15T14:45:38;23.60;;;11.02;;
66175;SDS011;52977;44.816;20.538;2022-11-15T14:48:05;26.13;;;11.32;;
66175;SDS011;52977;44.816;20.538;2022-11-15T14:50:31;40.00;;;15.00;;
66175;SDS011;52977;44.816;20.538;2022-11-15T14:52:58;37.13;;;14.73;;
66175;SDS011;52977;44.816;20.538;2022-11-15T14:55:28;37.15;;;13.40;;
66175;SDS011;52977;44.816;20.538;2022-11-15T14:58:03;27.20;;;12.10;;
66175;SDS011;52977;44.816;20.538;2022-11-15T15:00:31;29.15;;;13.18;;
66175;SDS011;52977;44.816;20.538;2022-11-15T15:02:57;27.92;;;12.40;;
66175;SDS011;52977;44.816;20.538;2022-11-15T15:05:30;36.90;;;15.32;;
66175;SDS011;52977;44.816;20.538;2022-11-15T15:07:58;39.08;;;15.13;;
66175;SDS011;52977;44.816;20.538;2022-11-15T15:10:24;32.53;;;13.65;;
66175;SDS011;52977;44.816;20.538;2022-11-15T15:12:53;44.53;;;16.48;;
66175;SDS011;52977;44.816;20.538;2022-11-15T15:15:21;39.58;;;15.55;;
66175;SDS011;52977;44.816;20.538;2022-11-15T15:20:16;53.13;;;18.83;;
66175;SDS011;52977;44.816;20.538;2022-11-15T15:22:43;53.05;;;19.48;;
66175;SDS011;52977;44.816;20.538;2022-11-15T15:25:29;48.70;;;19.27;;
66175;SDS011;52977;44.816;20.538;2022-11-15T15:27:57;39.25;;;17.25;;
66175;SDS011;52977;44.816;20.538;2022-11-15T15:30:24;39.70;;;15.98;;
66175;SDS011;52977;44.816;20.538;2022-11-15T15:32:51;43.15;;;17.63;;
66175;SDS011;52977;44.816;20.538;2022-11-15T15:35:18;46.67;;;18.92;;
66175;SDS011;52977;44.816;20.538;2022-11-15T15:37:45;53.33;;;19.45;;
66175;SDS011;52977;44.816;20.538;2022-11-15T15:40:16;41.03;;;17.33;;
66175;SDS011;52977;44.816;20.538;2022-11-15T15:42:46;47.40;;;18.38;;
66175;SDS011;52977;44.816;20.538;2022-11-15T15:45:13;56.10;;;20.52;;
66175;SDS011;52977;44.816;20.538;2022-11-15T15:47:40;46.20;;;19.23;;
66175;SDS011;52977;44.816;20.538;2022-11-15T15:50:20;41.33;;;16.60;;
66175;SDS011;52977;44.816;20.538;2022-11-15T15:52:49;34.88;;;14.30;;
66175;SDS011;52977;44.816;20.538;2022-11-15T15:55:16;28.45;;;13.30;;
66175;SDS011;52977;44.816;20.538;2022-11-15T15:57:43;29.33;;;13.32;;
66175;SDS011;52977;44.816;20.538;2022-11-15T16:00:09;34.92;;;14.23;;
66175;SDS011;52977;44.816;20.538;2022-11-15T16:02:39;29.87;;;13.03;;
66175;SDS011;52977;44.816;20.538;2022-11-15T16:05:07;31.67;;;13.07;;
66175;SDS011;52977;44.816;20.538;2022-11-15T16:07:34;29.10;;;13.10;;
66175;SDS011;52977;44.816;20.538;2022-11-15T16:10:00;26.80;;;11.82;;
66175;SDS011;52977;44.816;20.538;2022-11-15T16:12:28;31.38;;;12.70;;
66175;SDS011;52977;44.816;20.538;2022-11-15T16:14:59;27.67;;;11.57;;
66175;SDS011;52977;44.816;20.538;2022-11-15T16:17:28;25.17;;;11.73;;
66175;SDS011;52977;44.816;20.538;2022-11-15T16:20:01;29.02;;;12.07;;
66175;SDS011;52977;44.816;20.538;2022-11-15T16:22:28;29.63;;;12.30;;
66175;SDS011;52977;44.816;20.538;2022-11-15T16:24:55;28.50;;;12.90;;
66175;SDS011;52977;44.816;20.538;2022-11-15T16:27:22;32.33;;;13.27;;
66175;SDS011;52977;44.816;20.538;2022-11-15T16:29:48;32.22;;;13.65;;
66175;SDS011;52977;44.816;20.538;2022-11-15T16:32:15;31.40;;;14.15;;
66175;SDS011;52977;44.816;20.538;2022-11-15T16:34:41;30.77;;;13.10;;
66175;SDS011;52977;44.816;20.538;2022-11-15T16:37:22;31.65;;;13.68;;
66175;SDS011;52977;44.816;20.538;2022-11-15T16:39:48;27.35;;;11.90;;
66175;SDS011;52977;44.816;20.538;2022-11-15T16:42:14;35.95;;;14.32;;
66175;SDS011;52977;44.816;20.538;2022-11-15T16:44:40;32.97;;;15.10;;
66175;SDS011;52977;44.816;20.538;2022-11-15T16:47:16;30.58;;;12.85;;
66175;SDS011;52977;44.816;20.538;2022-11-15T16:49:46;35.05;;;13.40;;
66175;SDS011;52977;44.816;20.538;2022-11-15T16:52:12;35.30;;;12.25;;
66175;SDS011;52977;44.816;20.538;2022-11-15T16:54:38;31.45;;;13.43;;
66175;SDS011;52977;44.816;20.538;2022-11-15T16:57:05;30.27;;;12.57;;
66175;SDS011;52977;44.816;20.538;2022-11-15T16:59:31;28.10;;;12.80;;
66175;SDS011;52977;44.816;20.538;2022-11-15T17:01:58;29.10;;;12.57;;
66175;SDS011;52977;44.816;20.538;2022-11-15T17:04:23;26.65;;;12.00;;
66175;SDS011;52977;44.816;20.538;2022-11-15T17:06:52;28.40;;;11.60;;
66175;SDS011;52977;44.816;20.538;2022-11-15T17:09:19;29.67;;;11.68;;
66175;SDS011;52977;44.816;20.538;2022-11-15T17:11:49;26.65;;;10.85;;
66175;SDS011;52977;44.816;20.538;2022-11-15T17:14:16;28.52;;;10.68;;
66175;SDS011;52977;44.816;20.538;2022-11-15T17:16:42;24.40;;;10.00;;
66175;SDS011;52977;44.816;20.538;2022-11-15T17:19:16;24.65;;;10.25;;
66175;SDS011;52977;44.816;20.538;2022-11-15T17:21:45;29.60;;;11.57;;
66175;SDS011;52977;44.816;20.538;2022-11-15T17:24:14;21.02;;;10.85;;
66175;SDS011;52977;44.816;20.538;2022-11-15T17:26:40;25.95;;;10.80;;
66175;SDS011;52977;44.816;20.538;2022-11-15T17:29:07;32.03;;;12.90;;
66175;SDS011;52977;44.816;20.538;2022-11-15T17:31:34;35.90;;;13.15;;
66175;SDS011;52977;44.816;20.538;2022-11-15T17:34:02;29.48;;;13.05;;
66175;SDS011;52977;44.816;20.538;2022-11-15T17:36:29;33.55;;;13.77;;
66175;SDS011;52977;44.816;20.538;2022-11-15T17:38:55;41.80;;;16.85;;
66175;SDS011;52977;44.816;20.538;2022-11-15T17:41:22;52.20;;;19.50;;
66175;SDS011;52977;44.816;20.538;2022-11-15T17:43:48;50.83;;;19.77;;
66175;SDS011;52977;44.816;20.538;2022-11-15T17:46:16;51.88;;;19.92;;
66175;SDS011;52977;44.816;20.538;2022-11-15T17:48:44;60.03;;;22.73;;
66175;SDS011;52977;44.816;20.538;2022-11-15T17:51:12;64.40;;;23.48;;
66175;SDS011;52977;44.816;20.538;2022-11-15T17:53:41;69.35;;;25.20;;
66175;SDS011;52977;44.816;20.538;2022-11-15T17:56:10;66.50;;;24.33;;
66175;SDS011;52977;44.816;20.538;2022-11-15T17:58:47;59.53;;;24.42;;